首页
METAR-TAF:

METAR-TAF

机场 :

Chinandega, 尼加拉瓜

纬度: 12-38N, 经度: 087-08W, 海拔: 53米

当前天气观测

该预报发布于32分钟前的20:00 UTC
风速6节,风向
温度 40°C
湿度 28%
气压 1009 hPa
能见度10公里或以上
少量云层高于2500英尺
散云层高于30000英尺

METAR: MNCH 072000Z 09006KT 9999 FEW025 SCT300 40/18 Q1009

时间: 14:32 (20:32 UTC)


TAF: 丢失

超过4000个机场的气象观测和天气预报(METAR&TAF报告)。

可查询的气象台以黄色和红色小点在地图上表示。

将鼠标移到小点上方,可查看气象台名称。

然后点击查看天气观测和预报。

如需切换地图:点击带黑十字的绿色按钮放大地图;点击带横线的绿色按钮缩小地图;或者点击绿色箭头查看邻近地区的地图。


METAR-TAF: